Clearview, Texas
Current Conditions -  °F | °C
As of 8:15 PM on Saturday 22 Nov 2014 (Local Time) from KGYB Reporting Station
Overcast Overcast  
Wind Chill: 67°   Ceiling: 500
Heat Index: 67°   Visibility: 7mi
Dew Point: 66°   Wind: 10mph
Humidity: 96%   Direction: 170°S
Pressure: 29.79"   Gusts: 16mph
Location:  30.1644°N, 97.2747°W
Report Text: KGYB 230215Z AUTO 17009G14KT 7SM OVC005 20/19 A2979 RMK AO2 T01950188
Loading
Personal Weather Stations






























Interactive Weather Map New forecast layout! Learn more

10-Day Weather Forecast

Advertisements
Track Severe Weather on mobile